sensor_id;sensor_type;location;lat;lon;timestamp;P1;durP1;ratioP1;P2;durP2;ratioP2
12048;SDS011;6085;49.452;8.502;2022-11-15T00:04:01;4.57;;;3.30;;
12048;SDS011;6085;49.452;8.502;2022-11-15T00:08:02;3.65;;;3.22;;
12048;SDS011;6085;49.452;8.502;2022-11-15T00:12:06;3.63;;;3.10;;
12048;SDS011;6085;49.452;8.502;2022-11-15T00:16:08;4.07;;;3.20;;
12048;SDS011;6085;49.452;8.502;2022-11-15T00:20:10;3.22;;;2.95;;
12048;SDS011;6085;49.452;8.502;2022-11-15T00:24:12;4.40;;;3.20;;
12048;SDS011;6085;49.452;8.502;2022-11-15T00:28:15;3.28;;;2.97;;
12048;SDS011;6085;49.452;8.502;2022-11-15T00:32:17;5.60;;;3.50;;
12048;SDS011;6085;49.452;8.502;2022-11-15T00:36:19;4.50;;;3.42;;
12048;SDS011;6085;49.452;8.502;2022-11-15T00:40:21;3.38;;;2.95;;
12048;SDS011;6085;49.452;8.502;2022-11-15T00:44:24;4.15;;;3.00;;
12048;SDS011;6085;49.452;8.502;2022-11-15T00:48:26;3.90;;;2.72;;
12048;SDS011;6085;49.452;8.502;2022-11-15T00:52:28;3.30;;;3.00;;
12048;SDS011;6085;49.452;8.502;2022-11-15T00:56:30;4.10;;;3.03;;
12048;SDS011;6085;49.452;8.502;2022-11-15T01:00:33;3.53;;;2.95;;
12048;SDS011;6085;49.452;8.502;2022-11-15T01:04:35;3.33;;;3.03;;
12048;SDS011;6085;49.452;8.502;2022-11-15T01:08:37;4.72;;;3.00;;
12048;SDS011;6085;49.452;8.502;2022-11-15T01:12:40;3.78;;;3.10;;
12048;SDS011;6085;49.452;8.502;2022-11-15T01:16:43;3.33;;;2.97;;
12048;SDS011;6085;49.452;8.502;2022-11-15T01:20:45;3.10;;;2.80;;
12048;SDS011;6085;49.452;8.502;2022-11-15T01:24:47;3.75;;;3.22;;
12048;SDS011;6085;49.452;8.502;2022-11-15T01:28:50;4.22;;;3.83;;
12048;SDS011;6085;49.452;8.502;2022-11-15T01:32:53;3.45;;;3.15;;
12048;SDS011;6085;49.452;8.502;2022-11-15T01:36:55;4.30;;;3.10;;
12048;SDS011;6085;49.452;8.502;2022-11-15T01:40:57;3.40;;;3.10;;
12048;SDS011;6085;49.452;8.502;2022-11-15T01:44:58;4.70;;;2.90;;
12048;SDS011;6085;49.452;8.502;2022-11-15T01:49:03;3.50;;;3.20;;
12048;SDS011;6085;49.452;8.502;2022-11-15T01:53:11;3.28;;;2.92;;
12048;SDS011;6085;49.452;8.502;2022-11-15T01:57:13;4.03;;;3.45;;
12048;SDS011;6085;49.452;8.502;2022-11-15T02:01:15;4.13;;;3.67;;
12048;SDS011;6085;49.452;8.502;2022-11-15T02:05:18;4.30;;;3.63;;
12048;SDS011;6085;49.452;8.502;2022-11-15T02:09:20;3.50;;;3.20;;
12048;SDS011;6085;49.452;8.502;2022-11-15T02:13:22;4.45;;;3.10;;
12048;SDS011;6085;49.452;8.502;2022-11-15T02:17:27;2.67;;;2.47;;
12048;SDS011;6085;49.452;8.502;2022-11-15T02:21:39;3.83;;;3.13;;
12048;SDS011;6085;49.452;8.502;2022-11-15T02:25:48;3.60;;;2.80;;
12048;SDS011;6085;49.452;8.502;2022-11-15T02:30:21;3.47;;;2.70;;
12048;SDS011;6085;49.452;8.502;2022-11-15T02:34:25;3.00;;;2.70;;
12048;SDS011;6085;49.452;8.502;2022-11-15T02:38:36;3.53;;;2.83;;
12048;SDS011;6085;49.452;8.502;2022-11-15T02:42:45;3.47;;;2.67;;
12048;SDS011;6085;49.452;8.502;2022-11-15T02:47:13;3.58;;;2.53;;
12048;SDS011;6085;49.452;8.502;2022-11-15T02:51:18;2.90;;;2.70;;
12048;SDS011;6085;49.452;8.502;2022-11-15T02:55:24;5.97;;;3.13;;
12048;SDS011;6085;49.452;8.502;2022-11-15T03:04:02;3.05;;;2.75;;
12048;SDS011;6085;49.452;8.502;2022-11-15T03:08:16;2.63;;;2.30;;
12048;SDS011;6085;49.452;8.502;2022-11-15T03:12:24;3.63;;;2.42;;
12048;SDS011;6085;49.452;8.502;2022-11-15T03:16:30;3.53;;;2.60;;
12048;SDS011;6085;49.452;8.502;2022-11-15T03:20:39;2.75;;;2.55;;
12048;SDS011;6085;49.452;8.502;2022-11-15T03:24:43;4.63;;;2.70;;
12048;SDS011;6085;49.452;8.502;2022-11-15T03:28:47;3.03;;;2.72;;
12048;SDS011;6085;49.452;8.502;2022-11-15T03:32:54;3.33;;;3.03;;
12048;SDS011;6085;49.452;8.502;2022-11-15T03:37:00;3.00;;;2.50;;
12048;SDS011;6085;49.452;8.502;2022-11-15T03:41:04;4.85;;;2.67;;
12048;SDS011;6085;49.452;8.502;2022-11-15T03:45:10;3.40;;;3.00;;
12048;SDS011;6085;49.452;8.502;2022-11-15T03:49:17;3.80;;;2.88;;
12048;SDS011;6085;49.452;8.502;2022-11-15T03:53:24;4.07;;;2.72;;
12048;SDS011;6085;49.452;8.502;2022-11-15T03:57:26;3.00;;;2.33;;
12048;SDS011;6085;49.452;8.502;2022-11-15T04:01:28;2.90;;;2.60;;
12048;SDS011;6085;49.452;8.502;2022-11-15T04:05:30;3.25;;;2.78;;
12048;SDS011;6085;49.452;8.502;2022-11-15T04:09:33;3.72;;;2.45;;
12048;SDS011;6085;49.452;8.502;2022-11-15T04:13:56;3.08;;;2.78;;
12048;SDS011;6085;49.452;8.502;2022-11-15T04:17:58;2.85;;;2.58;;
12048;SDS011;6085;49.452;8.502;2022-11-15T04:22:00;3.97;;;2.88;;
12048;SDS011;6085;49.452;8.502;2022-11-15T04:26:29;2.63;;;2.42;;
12048;SDS011;6085;49.452;8.502;2022-11-15T04:30:31;2.67;;;2.47;;
12048;SDS011;6085;49.452;8.502;2022-11-15T04:34:33;2.60;;;2.40;;
12048;SDS011;6085;49.452;8.502;2022-11-15T04:38:35;3.63;;;2.45;;
12048;SDS011;6085;49.452;8.502;2022-11-15T04:42:38;3.28;;;2.50;;
12048;SDS011;6085;49.452;8.502;2022-11-15T04:46:41;2.35;;;2.15;;
12048;SDS011;6085;49.452;8.502;2022-11-15T04:50:43;2.70;;;2.28;;
12048;SDS011;6085;49.452;8.502;2022-11-15T04:54:45;2.97;;;2.38;;
12048;SDS011;6085;49.452;8.502;2022-11-15T04:58:49;3.50;;;2.10;;
12048;SDS011;6085;49.452;8.502;2022-11-15T05:02:51;4.05;;;2.88;;
12048;SDS011;6085;49.452;8.502;2022-11-15T05:07:10;3.65;;;2.38;;
12048;SDS011;6085;49.452;8.502;2022-11-15T05:11:12;2.58;;;2.17;;
12048;SDS011;6085;49.452;8.502;2022-11-15T05:15:15;2.75;;;2.50;;
12048;SDS011;6085;49.452;8.502;2022-11-15T05:19:17;3.50;;;2.20;;
12048;SDS011;6085;49.452;8.502;2022-11-15T05:23:19;2.80;;;2.60;;
12048;SDS011;6085;49.452;8.502;2022-11-15T05:27:20;2.55;;;2.22;;
12048;SDS011;6085;49.452;8.502;2022-11-15T05:31:24;2.70;;;2.50;;
12048;SDS011;6085;49.452;8.502;2022-11-15T05:35:35;2.60;;;2.40;;
12048;SDS011;6085;49.452;8.502;2022-11-15T05:39:41;4.30;;;2.60;;
12048;SDS011;6085;49.452;8.502;2022-11-15T05:43:42;3.40;;;2.60;;
12048;SDS011;6085;49.452;8.502;2022-11-15T05:47:47;2.70;;;2.47;;
12048;SDS011;6085;49.452;8.502;2022-11-15T05:51:50;3.63;;;2.78;;
12048;SDS011;6085;49.452;8.502;2022-11-15T05:55:54;3.50;;;2.72;;
12048;SDS011;6085;49.452;8.502;2022-11-15T05:59:55;3.95;;;2.70;;
12048;SDS011;6085;49.452;8.502;2022-11-15T06:03:59;5.15;;;3.05;;
12048;SDS011;6085;49.452;8.502;2022-11-15T06:08:01;4.63;;;2.97;;
12048;SDS011;6085;49.452;8.502;2022-11-15T06:12:03;4.35;;;2.70;;
12048;SDS011;6085;49.452;8.502;2022-11-15T06:16:05;3.70;;;2.65;;
12048;SDS011;6085;49.452;8.502;2022-11-15T06:20:09;3.38;;;2.42;;
12048;SDS011;6085;49.452;8.502;2022-11-15T06:24:12;5.63;;;2.60;;
12048;SDS011;6085;49.452;8.502;2022-11-15T06:28:13;5.20;;;2.90;;
12048;SDS011;6085;49.452;8.502;2022-11-15T06:32:15;3.28;;;2.80;;
12048;SDS011;6085;49.452;8.502;2022-11-15T06:36:18;4.35;;;3.20;;
12048;SDS011;6085;49.452;8.502;2022-11-15T06:40:20;2.92;;;2.70;;
12048;SDS011;6085;49.452;8.502;2022-11-15T06:44:22;4.00;;;2.78;;
12048;SDS011;6085;49.452;8.502;2022-11-15T06:48:24;2.95;;;2.40;;
12048;SDS011;6085;49.452;8.502;2022-11-15T06:52:28;3.67;;;2.90;;
12048;SDS011;6085;49.452;8.502;2022-11-15T06:56:33;3.67;;;2.70;;
12048;SDS011;6085;49.452;8.502;2022-11-15T07:00:35;5.47;;;3.08;;
12048;SDS011;6085;49.452;8.502;2022-11-15T07:04:37;4.63;;;2.65;;
12048;SDS011;6085;49.452;8.502;2022-11-15T07:08:40;3.72;;;2.60;;
12048;SDS011;6085;49.452;8.502;2022-11-15T07:12:45;5.97;;;2.78;;
12048;SDS011;6085;49.452;8.502;2022-11-15T07:16:48;6.75;;;3.17;;
12048;SDS011;6085;49.452;8.502;2022-11-15T07:20:50;4.82;;;3.22;;
12048;SDS011;6085;49.452;8.502;2022-11-15T07:24:53;6.93;;;4.07;;
12048;SDS011;6085;49.452;8.502;2022-11-15T07:28:55;7.47;;;4.40;;
12048;SDS011;6085;49.452;8.502;2022-11-15T07:32:57;6.03;;;4.88;;
12048;SDS011;6085;49.452;8.502;2022-11-15T07:37:00;6.80;;;5.57;;
12048;SDS011;6085;49.452;8.502;2022-11-15T07:41:04;9.23;;;6.45;;
12048;SDS011;6085;49.452;8.502;2022-11-15T07:45:06;8.95;;;3.65;;
12048;SDS011;6085;49.452;8.502;2022-11-15T07:49:08;4.82;;;3.00;;
12048;SDS011;6085;49.452;8.502;2022-11-15T07:53:11;4.70;;;3.22;;
12048;SDS011;6085;49.452;8.502;2022-11-15T07:57:14;4.90;;;3.33;;
12048;SDS011;6085;49.452;8.502;2022-11-15T08:01:16;5.68;;;3.17;;
12048;SDS011;6085;49.452;8.502;2022-11-15T08:05:18;3.17;;;2.85;;
12048;SDS011;6085;49.452;8.502;2022-11-15T08:09:20;5.97;;;3.53;;
12048;SDS011;6085;49.452;8.502;2022-11-15T08:13:23;3.90;;;3.22;;
12048;SDS011;6085;49.452;8.502;2022-11-15T08:17:24;3.88;;;3.08;;
12048;SDS011;6085;49.452;8.502;2022-11-15T08:21:26;3.17;;;2.83;;
12048;SDS011;6085;49.452;8.502;2022-11-15T08:25:29;4.22;;;2.85;;
12048;SDS011;6085;49.452;8.502;2022-11-15T08:29:33;3.47;;;3.17;;
12048;SDS011;6085;49.452;8.502;2022-11-15T08:33:36;2.80;;;2.50;;
12048;SDS011;6085;49.452;8.502;2022-11-15T08:37:38;3.70;;;2.70;;
12048;SDS011;6085;49.452;8.502;2022-11-15T08:41:40;3.28;;;2.58;;
12048;SDS011;6085;49.452;8.502;2022-11-15T08:45:43;3.15;;;2.85;;
12048;SDS011;6085;49.452;8.502;2022-11-15T08:49:45;5.45;;;3.40;;
12048;SDS011;6085;49.452;8.502;2022-11-15T08:53:47;4.03;;;2.97;;
12048;SDS011;6085;49.452;8.502;2022-11-15T08:57:49;5.22;;;3.30;;
12048;SDS011;6085;49.452;8.502;2022-11-15T09:01:52;2.88;;;2.67;;
12048;SDS011;6085;49.452;8.502;2022-11-15T09:05:54;3.22;;;2.90;;
12048;SDS011;6085;49.452;8.502;2022-11-15T09:09:57;3.33;;;2.67;;
12048;SDS011;6085;49.452;8.502;2022-11-15T09:13:59;3.35;;;2.83;;
12048;SDS011;6085;49.452;8.502;2022-11-15T09:18:02;4.38;;;2.63;;
12048;SDS011;6085;49.452;8.502;2022-11-15T09:22:05;4.03;;;3.08;;
12048;SDS011;6085;49.452;8.502;2022-11-15T09:26:07;5.85;;;2.95;;
12048;SDS011;6085;49.452;8.502;2022-11-15T09:30:10;3.17;;;2.88;;
12048;SDS011;6085;49.452;8.502;2022-11-15T09:34:13;3.55;;;3.00;;
12048;SDS011;6085;49.452;8.502;2022-11-15T09:38:16;3.70;;;2.65;;
12048;SDS011;6085;49.452;8.502;2022-11-15T09:42:22;2.70;;;2.50;;
12048;SDS011;6085;49.452;8.502;2022-11-15T09:46:38;2.92;;;2.67;;
12048;SDS011;6085;49.452;8.502;2022-11-15T09:50:51;4.32;;;2.58;;
12048;SDS011;6085;49.452;8.502;2022-11-15T09:54:59;3.70;;;3.00;;
12048;SDS011;6085;49.452;8.502;2022-11-15T09:59:06;3.50;;;2.47;;
12048;SDS011;6085;49.452;8.502;2022-11-15T10:03:19;2.45;;;2.22;;
12048;SDS011;6085;49.452;8.502;2022-11-15T10:07:30;2.85;;;2.60;;
12048;SDS011;6085;49.452;8.502;2022-11-15T10:11:39;2.50;;;2.20;;
12048;SDS011;6085;49.452;8.502;2022-11-15T10:15:42;2.50;;;2.30;;
12048;SDS011;6085;49.452;8.502;2022-11-15T10:19:50;4.20;;;2.33;;
12048;SDS011;6085;49.452;8.502;2022-11-15T10:23:59;4.05;;;3.42;;
12048;SDS011;6085;49.452;8.502;2022-11-15T10:28:03;3.97;;;2.58;;
12048;SDS011;6085;49.452;8.502;2022-11-15T10:32:11;2.75;;;2.50;;
12048;SDS011;6085;49.452;8.502;2022-11-15T10:36:15;3.42;;;2.60;;
12048;SDS011;6085;49.452;8.502;2022-11-15T10:40:22;3.17;;;2.25;;
12048;SDS011;6085;49.452;8.502;2022-11-15T10:44:26;3.50;;;2.40;;
12048;SDS011;6085;49.452;8.502;2022-11-15T10:48:30;4.97;;;3.15;;
12048;SDS011;6085;49.452;8.502;2022-11-15T10:52:33;3.13;;;2.33;;
12048;SDS011;6085;49.452;8.502;2022-11-15T10:56:38;2.58;;;2.38;;
12048;SDS011;6085;49.452;8.502;2022-11-15T11:00:41;9.45;;;2.78;;
12048;SDS011;6085;49.452;8.502;2022-11-15T11:04:48;4.32;;;2.50;;
12048;SDS011;6085;49.452;8.502;2022-11-15T11:08:55;3.83;;;2.60;;
12048;SDS011;6085;49.452;8.502;2022-11-15T11:13:13;5.30;;;2.15;;
12048;SDS011;6085;49.452;8.502;2022-11-15T11:17:16;2.65;;;2.45;;
12048;SDS011;6085;49.452;8.502;2022-11-15T11:21:29;2.83;;;2.50;;
12048;SDS011;6085;49.452;8.502;2022-11-15T11:25:42;3.95;;;2.30;;
12048;SDS011;6085;49.452;8.502;2022-11-15T11:29:57;2.28;;;2.08;;
12048;SDS011;6085;49.452;8.502;2022-11-15T11:34:11;4.00;;;2.05;;
12048;SDS011;6085;49.452;8.502;2022-11-15T11:38:19;3.65;;;2.40;;
12048;SDS011;6085;49.452;8.502;2022-11-15T11:42:42;2.25;;;2.05;;
12048;SDS011;6085;49.452;8.502;2022-11-15T11:46:55;2.30;;;2.10;;
12048;SDS011;6085;49.452;8.502;2022-11-15T11:51:02;2.10;;;1.90;;
12048;SDS011;6085;49.452;8.502;2022-11-15T11:55:12;2.90;;;1.95;;
12048;SDS011;6085;49.452;8.502;2022-11-15T11:59:19;2.15;;;1.98;;
12048;SDS011;6085;49.452;8.502;2022-11-15T12:03:28;1.83;;;1.70;;
12048;SDS011;6085;49.452;8.502;2022-11-15T12:07:34;3.17;;;1.58;;
12048;SDS011;6085;49.452;8.502;2022-11-15T12:11:43;2.38;;;1.75;;
12048;SDS011;6085;49.452;8.502;2022-11-15T12:15:53;2.95;;;1.80;;
12048;SDS011;6085;49.452;8.502;2022-11-15T12:20:04;1.90;;;1.70;;
12048;SDS011;6085;49.452;8.502;2022-11-15T12:24:16;2.08;;;1.58;;
12048;SDS011;6085;49.452;8.502;2022-11-15T12:28:24;1.98;;;1.75;;
12048;SDS011;6085;49.452;8.502;2022-11-15T12:32:35;4.68;;;3.75;;
12048;SDS011;6085;49.452;8.502;2022-11-15T12:36:40;1.60;;;1.50;;
12048;SDS011;6085;49.452;8.502;2022-11-15T12:45:24;1.63;;;1.52;;
12048;SDS011;6085;49.452;8.502;2022-11-15T12:49:46;1.92;;;1.50;;
12048;SDS011;6085;49.452;8.502;2022-11-15T12:53:50;2.15;;;1.85;;
12048;SDS011;6085;49.452;8.502;2022-11-15T12:57:51;2.58;;;1.90;;
12048;SDS011;6085;49.452;8.502;2022-11-15T13:01:56;2.22;;;1.80;;
12048;SDS011;6085;49.452;8.502;2022-11-15T13:06:07;3.15;;;1.83;;
12048;SDS011;6085;49.452;8.502;2022-11-15T13:14:44;2.45;;;1.73;;
12048;SDS011;6085;49.452;8.502;2022-11-15T13:18:52;2.47;;;1.77;;
12048;SDS011;6085;49.452;8.502;2022-11-15T13:23:07;2.95;;;1.75;;
12048;SDS011;6085;49.452;8.502;2022-11-15T13:27:12;1.75;;;1.65;;
12048;SDS011;6085;49.452;8.502;2022-11-15T13:31:21;2.38;;;1.85;;
12048;SDS011;6085;49.452;8.502;2022-11-15T13:35:36;2.25;;;1.90;;
12048;SDS011;6085;49.452;8.502;2022-11-15T13:39:41;2.65;;;1.73;;
12048;SDS011;6085;49.452;8.502;2022-11-15T13:43:44;3.00;;;2.00;;
12048;SDS011;6085;49.452;8.502;2022-11-15T13:47:50;2.47;;;1.85;;
12048;SDS011;6085;49.452;8.502;2022-11-15T13:51:54;3.38;;;1.77;;
12048;SDS011;6085;49.452;8.502;2022-11-15T13:55:57;2.25;;;2.05;;
12048;SDS011;6085;49.452;8.502;2022-11-15T14:00:03;2.15;;;1.95;;
12048;SDS011;6085;49.452;8.502;2022-11-15T14:04:09;2.53;;;2.10;;
12048;SDS011;6085;49.452;8.502;2022-11-15T14:08:21;2.90;;;2.10;;
12048;SDS011;6085;49.452;8.502;2022-11-15T14:12:26;2.13;;;1.80;;
12048;SDS011;6085;49.452;8.502;2022-11-15T14:16:34;2.95;;;1.75;;
12048;SDS011;6085;49.452;8.502;2022-11-15T14:20:38;2.20;;;2.00;;
12048;SDS011;6085;49.452;8.502;2022-11-15T14:24:41;1.85;;;1.70;;
12048;SDS011;6085;49.452;8.502;2022-11-15T14:28:44;2.72;;;1.92;;
12048;SDS011;6085;49.452;8.502;2022-11-15T14:32:47;3.20;;;2.15;;
12048;SDS011;6085;49.452;8.502;2022-11-15T14:36:50;2.88;;;2.20;;
12048;SDS011;6085;49.452;8.502;2022-11-15T14:40:52;6.47;;;2.28;;
12048;SDS011;6085;49.452;8.502;2022-11-15T14:44:55;4.97;;;2.30;;
12048;SDS011;6085;49.452;8.502;2022-11-15T14:48:59;4.07;;;2.67;;
12048;SDS011;6085;49.452;8.502;2022-11-15T14:53:01;2.97;;;2.63;;
12048;SDS011;6085;49.452;8.502;2022-11-15T14:57:03;3.72;;;2.88;;
12048;SDS011;6085;49.452;8.502;2022-11-15T15:01:09;3.35;;;2.75;;
12048;SDS011;6085;49.452;8.502;2022-11-15T15:05:15;2.70;;;2.10;;
12048;SDS011;6085;49.452;8.502;2022-11-15T15:09:19;2.50;;;2.30;;
12048;SDS011;6085;49.452;8.502;2022-11-15T15:13:21;2.63;;;2.40;;
12048;SDS011;6085;49.452;8.502;2022-11-15T15:17:24;3.42;;;2.72;;
12048;SDS011;6085;49.452;8.502;2022-11-15T15:21:27;3.47;;;2.72;;
12048;SDS011;6085;49.452;8.502;2022-11-15T15:25:32;2.83;;;2.50;;
12048;SDS011;6085;49.452;8.502;2022-11-15T15:29:35;5.72;;;2.70;;
12048;SDS011;6085;49.452;8.502;2022-11-15T15:33:37;6.60;;;5.68;;
12048;SDS011;6085;49.452;8.502;2022-11-15T15:37:41;4.25;;;3.85;;
12048;SDS011;6085;49.452;8.502;2022-11-15T15:41:44;4.65;;;3.60;;
12048;SDS011;6085;49.452;8.502;2022-11-15T15:45:45;4.60;;;3.70;;
12048;SDS011;6085;49.452;8.502;2022-11-15T15:49:48;5.18;;;3.20;;
12048;SDS011;6085;49.452;8.502;2022-11-15T15:53:52;4.10;;;3.47;;
12048;SDS011;6085;49.452;8.502;2022-11-15T15:57:57;5.35;;;2.88;;
12048;SDS011;6085;49.452;8.502;2022-11-15T16:01:59;7.00;;;2.90;;
12048;SDS011;6085;49.452;8.502;2022-11-15T16:06:01;4.95;;;2.72;;
12048;SDS011;6085;49.452;8.502;2022-11-15T16:10:13;4.35;;;3.60;;
12048;SDS011;6085;49.452;8.502;2022-11-15T16:14:24;4.22;;;3.20;;
12048;SDS011;6085;49.452;8.502;2022-11-15T16:18:26;3.40;;;3.00;;
12048;SDS011;6085;49.452;8.502;2022-11-15T16:22:28;4.30;;;2.75;;
12048;SDS011;6085;49.452;8.502;2022-11-15T16:26:31;2.67;;;2.42;;
12048;SDS011;6085;49.452;8.502;2022-11-15T16:30:35;2.60;;;2.40;;
12048;SDS011;6085;49.452;8.502;2022-11-15T16:34:37;2.67;;;2.30;;
12048;SDS011;6085;49.452;8.502;2022-11-15T16:38:39;3.25;;;2.50;;
12048;SDS011;6085;49.452;8.502;2022-11-15T16:42:42;4.65;;;2.70;;
12048;SDS011;6085;49.452;8.502;2022-11-15T16:46:44;3.70;;;2.42;;
12048;SDS011;6085;49.452;8.502;2022-11-15T16:50:51;3.10;;;2.78;;
12048;SDS011;6085;49.452;8.502;2022-11-15T16:54:56;4.25;;;2.88;;
12048;SDS011;6085;49.452;8.502;2022-11-15T16:59:02;3.60;;;3.10;;
12048;SDS011;6085;49.452;8.502;2022-11-15T17:03:04;2.67;;;2.45;;
12048;SDS011;6085;49.452;8.502;2022-11-15T17:07:07;3.67;;;2.20;;
12048;SDS011;6085;49.452;8.502;2022-11-15T17:11:10;3.90;;;2.38;;
12048;SDS011;6085;49.452;8.502;2022-11-15T17:15:16;2.33;;;2.13;;
12048;SDS011;6085;49.452;8.502;2022-11-15T17:19:19;2.80;;;2.30;;
12048;SDS011;6085;49.452;8.502;2022-11-15T17:23:21;2.53;;;2.33;;
12048;SDS011;6085;49.452;8.502;2022-11-15T17:27:23;2.80;;;2.22;;
12048;SDS011;6085;49.452;8.502;2022-11-15T17:31:27;3.17;;;2.40;;
12048;SDS011;6085;49.452;8.502;2022-11-15T17:35:30;3.88;;;2.63;;
12048;SDS011;6085;49.452;8.502;2022-11-15T17:39:32;2.60;;;2.40;;
12048;SDS011;6085;49.452;8.502;2022-11-15T17:43:33;3.08;;;2.33;;
12048;SDS011;6085;49.452;8.502;2022-11-15T17:47:37;3.55;;;2.20;;
12048;SDS011;6085;49.452;8.502;2022-11-15T17:51:38;2.33;;;2.00;;
12048;SDS011;6085;49.452;8.502;2022-11-15T17:55:40;2.35;;;2.15;;
12048;SDS011;6085;49.452;8.502;2022-11-15T17:59:42;2.97;;;2.45;;
12048;SDS011;6085;49.452;8.502;2022-11-15T18:03:46;3.08;;;2.72;;
12048;SDS011;6085;49.452;8.502;2022-11-15T18:07:49;3.25;;;2.95;;
12048;SDS011;6085;49.452;8.502;2022-11-15T18:11:51;3.33;;;2.97;;
12048;SDS011;6085;49.452;8.502;2022-11-15T18:15:53;3.80;;;3.38;;
12048;SDS011;6085;49.452;8.502;2022-11-15T18:20:03;4.50;;;3.97;;
12048;SDS011;6085;49.452;8.502;2022-11-15T18:24:05;3.95;;;3.55;;
12048;SDS011;6085;49.452;8.502;2022-11-15T18:28:07;4.85;;;3.33;;
12048;SDS011;6085;49.452;8.502;2022-11-15T18:32:09;3.40;;;3.10;;
12048;SDS011;6085;49.452;8.502;2022-11-15T18:36:16;4.78;;;3.40;;
12048;SDS011;6085;49.452;8.502;2022-11-15T18:40:19;5.53;;;3.70;;
12048;SDS011;6085;49.452;8.502;2022-11-15T18:44:21;4.15;;;3.58;;
12048;SDS011;6085;49.452;8.502;2022-11-15T18:48:23;4.50;;;3.40;;
12048;SDS011;6085;49.452;8.502;2022-11-15T18:52:26;4.50;;;3.17;;
12048;SDS011;6085;49.452;8.502;2022-11-15T18:56:28;4.28;;;2.80;;
12048;SDS011;6085;49.452;8.502;2022-11-15T19:00:31;3.20;;;2.90;;
12048;SDS011;6085;49.452;8.502;2022-11-15T19:04:33;3.00;;;2.67;;
12048;SDS011;6085;49.452;8.502;2022-11-15T19:08:37;3.95;;;3.42;;
12048;SDS011;6085;49.452;8.502;2022-11-15T19:12:40;4.80;;;2.72;;
12048;SDS011;6085;49.452;8.502;2022-11-15T19:16:42;3.92;;;3.53;;
12048;SDS011;6085;49.452;8.502;2022-11-15T19:20:48;6.85;;;3.88;;
12048;SDS011;6085;49.452;8.502;2022-11-15T19:24:52;3.45;;;2.67;;
12048;SDS011;6085;49.452;8.502;2022-11-15T19:28:54;5.13;;;3.00;;
12048;SDS011;6085;49.452;8.502;2022-11-15T19:32:57;3.72;;;3.22;;
12048;SDS011;6085;49.452;8.502;2022-11-15T19:36:59;6.07;;;3.45;;
12048;SDS011;6085;49.452;8.502;2022-11-15T19:41:04;3.72;;;3.33;;
12048;SDS011;6085;49.452;8.502;2022-11-15T19:45:09;4.13;;;3.72;;
12048;SDS011;6085;49.452;8.502;2022-11-15T19:49:11;4.18;;;3.45;;
12048;SDS011;6085;49.452;8.502;2022-11-15T19:53:13;6.72;;;5.03;;
12048;SDS011;6085;49.452;8.502;2022-11-15T19:57:16;5.18;;;3.83;;
12048;SDS011;6085;49.452;8.502;2022-11-15T20:01:19;3.10;;;2.80;;
12048;SDS011;6085;49.452;8.502;2022-11-15T20:05:22;2.80;;;2.60;;
12048;SDS011;6085;49.452;8.502;2022-11-15T20:09:24;5.32;;;3.38;;
12048;SDS011;6085;49.452;8.502;2022-11-15T20:13:27;3.88;;;2.97;;
12048;SDS011;6085;49.452;8.502;2022-11-15T20:17:29;3.28;;;2.70;;
12048;SDS011;6085;49.452;8.502;2022-11-15T20:21:31;4.45;;;3.80;;
12048;SDS011;6085;49.452;8.502;2022-11-15T20:25:33;4.82;;;4.18;;
12048;SDS011;6085;49.452;8.502;2022-11-15T20:29:38;4.57;;;4.10;;
12048;SDS011;6085;49.452;8.502;2022-11-15T20:33:40;4.90;;;4.13;;
12048;SDS011;6085;49.452;8.502;2022-11-15T20:37:42;4.45;;;3.90;;
12048;SDS011;6085;49.452;8.502;2022-11-15T20:41:44;4.95;;;3.60;;
12048;SDS011;6085;49.452;8.502;2022-11-15T20:45:47;7.57;;;3.80;;
12048;SDS011;6085;49.452;8.502;2022-11-15T20:49:50;4.68;;;4.00;;
12048;SDS011;6085;49.452;8.502;2022-11-15T20:53:54;3.70;;;3.38;;
12048;SDS011;6085;49.452;8.502;2022-11-15T20:57:59;4.80;;;3.70;;
12048;SDS011;6085;49.452;8.502;2022-11-15T21:02:02;3.60;;;2.92;;
12048;SDS011;6085;49.452;8.502;2022-11-15T21:06:04;3.60;;;3.10;;
12048;SDS011;6085;49.452;8.502;2022-11-15T21:10:07;4.95;;;4.45;;
12048;SDS011;6085;49.452;8.502;2022-11-15T21:14:27;6.25;;;5.57;;
12048;SDS011;6085;49.452;8.502;2022-11-15T21:18:30;4.30;;;3.90;;
12048;SDS011;6085;49.452;8.502;2022-11-15T21:22:32;5.20;;;3.40;;
12048;SDS011;6085;49.452;8.502;2022-11-15T21:26:34;3.72;;;3.17;;
12048;SDS011;6085;49.452;8.502;2022-11-15T21:30:37;3.38;;;3.00;;
12048;SDS011;6085;49.452;8.502;2022-11-15T21:34:40;4.95;;;3.38;;
12048;SDS011;6085;49.452;8.502;2022-11-15T21:38:42;3.85;;;3.10;;
12048;SDS011;6085;49.452;8.502;2022-11-15T21:42:44;3.67;;;3.20;;
12048;SDS011;6085;49.452;8.502;2022-11-15T21:46:45;4.85;;;3.25;;
12048;SDS011;6085;49.452;8.502;2022-11-15T21:50:54;3.90;;;3.33;;
12048;SDS011;6085;49.452;8.502;2022-11-15T21:54:57;3.90;;;3.17;;
12048;SDS011;6085;49.452;8.502;2022-11-15T21:58:59;4.03;;;3.22;;
12048;SDS011;6085;49.452;8.502;2022-11-15T22:03:00;3.95;;;2.88;;
12048;SDS011;6085;49.452;8.502;2022-11-15T22:07:04;5.10;;;3.28;;
12048;SDS011;6085;49.452;8.502;2022-11-15T22:11:06;3.60;;;2.85;;
12048;SDS011;6085;49.452;8.502;2022-11-15T22:15:08;3.50;;;3.00;;
12048;SDS011;6085;49.452;8.502;2022-11-15T22:19:10;4.32;;;3.10;;
12048;SDS011;6085;49.452;8.502;2022-11-15T22:23:13;4.30;;;3.10;;
12048;SDS011;6085;49.452;8.502;2022-11-15T22:27:15;6.82;;;3.50;;
12048;SDS011;6085;49.452;8.502;2022-11-15T22:31:17;3.78;;;3.30;;
12048;SDS011;6085;49.452;8.502;2022-11-15T22:35:19;6.15;;;3.33;;
12048;SDS011;6085;49.452;8.502;2022-11-15T22:39:23;3.90;;;3.35;;
12048;SDS011;6085;49.452;8.502;2022-11-15T22:43:26;5.25;;;4.05;;
12048;SDS011;6085;49.452;8.502;2022-11-15T22:47:28;4.65;;;4.05;;
12048;SDS011;6085;49.452;8.502;2022-11-15T22:51:30;5.90;;;5.30;;
12048;SDS011;6085;49.452;8.502;2022-11-15T22:55:33;6.97;;;6.18;;
12048;SDS011;6085;49.452;8.502;2022-11-15T22:59:37;7.78;;;6.32;;
12048;SDS011;6085;49.452;8.502;2022-11-15T23:03:41;5.90;;;5.28;;
12048;SDS011;6085;49.452;8.502;2022-11-15T23:07:43;4.32;;;3.92;;
12048;SDS011;6085;49.452;8.502;2022-11-15T23:11:47;4.35;;;3.88;;
12048;SDS011;6085;49.452;8.502;2022-11-15T23:16:07;6.00;;;3.88;;
12048;SDS011;6085;49.452;8.502;2022-11-15T23:20:34;4.97;;;3.95;;
12048;SDS011;6085;49.452;8.502;2022-11-15T23:24:36;4.75;;;4.18;;
12048;SDS011;6085;49.452;8.502;2022-11-15T23:28:39;4.35;;;3.90;;
12048;SDS011;6085;49.452;8.502;2022-11-15T23:32:41;5.82;;;4.22;;
12048;SDS011;6085;49.452;8.502;2022-11-15T23:37:01;5.00;;;4.28;;
12048;SDS011;6085;49.452;8.502;2022-11-15T23:41:03;4.47;;;3.60;;
12048;SDS011;6085;49.452;8.502;2022-11-15T23:45:07;6.05;;;4.57;;
12048;SDS011;6085;49.452;8.502;2022-11-15T23:49:10;5.45;;;4.30;;
12048;SDS011;6085;49.452;8.502;2022-11-15T23:53:12;5.60;;;5.00;;
12048;SDS011;6085;49.452;8.502;2022-11-15T23:57:14;5.20;;;4.70;;
